Portada
METAR-TAF:

METAR-TAF

Aeroports :

Harriman-and-West Airport

North Adams, Massachusetts, Estats Units d'Amèrica

latitud: 42-41-50N, longitud: 073-10-13W, altitud: 199 m

Observació

L'informe es va fer fa 44 minuts, a les 22:52 UTC
Vent 9 kt del Oest/Nord-Oest amb ràfegues de 25 kt
Temperatura 3°C
Humitat 56%
Pressió 1007 hPa
Visibilitat: 16.1 km
Cel cobert a una alçada de 3900 ft

METAR: KAQW 222252Z AUTO 29009G25KT 10SM OVC039 03/M05 A2974 RMK AO2 PK WND 26035/2201 SLP077 T00281050 TSNO

Hora: 18:36 (23:36 UTC)


TAF: manca

Observacions i pronòstics meteorològics de més de 4000 aeroports (METAR i TAF).

Les estacions disponibles són els punts grocs i vermells al mapa.

Posi el ratolí al punt desitjat per veure el nom de l'estació.

Feu clic per veure les observacions i els pronòstics meteorològics.

Per canviar el mapa: feu clic els botons verds amb una creu de color negre per apropar; al botó verd amb un guió per allunyar la imatge; o en les fletxes verdes per a mapes adjacents.


METAR-TAF: